sensor_id;sensor_type;location;lat;lon;timestamp;P1;durP1;ratioP1;P2;durP2;ratioP2
42904;SDS011;28550;51.228;4.528;2024-01-06T00:03:50;18.30;;;5.63;;
42904;SDS011;28550;51.228;4.528;2024-01-06T00:06:25;10.57;;;4.65;;
42904;SDS011;28550;51.228;4.528;2024-01-06T00:09:02;9.63;;;4.00;;
42904;SDS011;28550;51.228;4.528;2024-01-06T00:11:40;14.95;;;4.47;;
42904;SDS011;28550;51.228;4.528;2024-01-06T00:14:10;12.27;;;4.55;;
42904;SDS011;28550;51.228;4.528;2024-01-06T00:16:41;12.00;;;5.20;;
42904;SDS011;28550;51.228;4.528;2024-01-06T00:19:10;12.73;;;5.05;;
42904;SDS011;28550;51.228;4.528;2024-01-06T00:21:47;11.48;;;5.32;;
42904;SDS011;28550;51.228;4.528;2024-01-06T00:24:19;13.23;;;4.78;;
42904;SDS011;28550;51.228;4.528;2024-01-06T00:26:45;13.52;;;4.93;;
42904;SDS011;28550;51.228;4.528;2024-01-06T00:32:01;12.30;;;5.32;;
42904;SDS011;28550;51.228;4.528;2024-01-06T00:34:29;10.73;;;5.20;;
42904;SDS011;28550;51.228;4.528;2024-01-06T00:40:03;9.38;;;4.80;;
42904;SDS011;28550;51.228;4.528;2024-01-06T00:42:34;11.10;;;5.30;;
42904;SDS011;28550;51.228;4.528;2024-01-06T00:45:06;12.18;;;5.40;;
42904;SDS011;28550;51.228;4.528;2024-01-06T00:47:43;9.98;;;4.40;;
42904;SDS011;28550;51.228;4.528;2024-01-06T00:50:37;10.07;;;5.13;;
42904;SDS011;28550;51.228;4.528;2024-01-06T00:53:19;9.07;;;5.00;;
42904;SDS011;28550;51.228;4.528;2024-01-06T00:55:46;15.75;;;5.43;;
42904;SDS011;28550;51.228;4.528;2024-01-06T00:58:11;10.63;;;5.47;;
42904;SDS011;28550;51.228;4.528;2024-01-06T01:00:38;11.63;;;5.60;;
42904;SDS011;28550;51.228;4.528;2024-01-06T01:03:03;14.63;;;6.10;;
42904;SDS011;28550;51.228;4.528;2024-01-06T01:05:29;13.98;;;5.75;;
42904;SDS011;28550;51.228;4.528;2024-01-06T01:07:56;12.18;;;5.85;;
42904;SDS011;28550;51.228;4.528;2024-01-06T01:13:01;13.05;;;6.65;;
42904;SDS011;28550;51.228;4.528;2024-01-06T01:15:31;13.98;;;6.82;;
42904;SDS011;28550;51.228;4.528;2024-01-06T01:18:01;14.35;;;7.10;;
42904;SDS011;28550;51.228;4.528;2024-01-06T01:26:08;16.15;;;7.85;;
42904;SDS011;28550;51.228;4.528;2024-01-06T01:28:36;17.25;;;8.23;;
42904;SDS011;28550;51.228;4.528;2024-01-06T01:31:01;16.98;;;7.70;;
42904;SDS011;28550;51.228;4.528;2024-01-06T01:33:28;18.85;;;9.10;;
42904;SDS011;28550;51.228;4.528;2024-01-06T01:35:53;21.35;;;9.45;;
42904;SDS011;28550;51.228;4.528;2024-01-06T01:38:27;19.63;;;9.68;;
42904;SDS011;28550;51.228;4.528;2024-01-06T01:40:54;21.42;;;11.27;;
42904;SDS011;28550;51.228;4.528;2024-01-06T01:43:35;24.27;;;12.75;;
42904;SDS011;28550;51.228;4.528;2024-01-06T01:46:00;22.73;;;11.80;;
42904;SDS011;28550;51.228;4.528;2024-01-06T01:48:26;26.77;;;12.48;;
42904;SDS011;28550;51.228;4.528;2024-01-06T01:50:53;23.38;;;11.95;;
42904;SDS011;28550;51.228;4.528;2024-01-06T01:53:49;28.92;;;12.15;;
42904;SDS011;28550;51.228;4.528;2024-01-06T01:56:20;30.70;;;14.25;;
42904;SDS011;28550;51.228;4.528;2024-01-06T02:02:27;20.63;;;9.77;;
42904;SDS011;28550;51.228;4.528;2024-01-06T02:07:32;25.10;;;10.68;;
42904;SDS011;28550;51.228;4.528;2024-01-06T02:10:06;25.20;;;11.82;;
42904;SDS011;28550;51.228;4.528;2024-01-06T02:15:25;30.83;;;13.15;;
42904;SDS011;28550;51.228;4.528;2024-01-06T02:17:53;27.60;;;12.32;;
42904;SDS011;28550;51.228;4.528;2024-01-06T02:20:19;34.08;;;13.93;;
42904;SDS011;28550;51.228;4.528;2024-01-06T02:22:51;28.00;;;13.10;;
42904;SDS011;28550;51.228;4.528;2024-01-06T02:25:20;27.83;;;14.13;;
42904;SDS011;28550;51.228;4.528;2024-01-06T02:28:02;30.20;;;14.00;;
42904;SDS011;28550;51.228;4.528;2024-01-06T02:30:44;31.92;;;13.90;;
42904;SDS011;28550;51.228;4.528;2024-01-06T02:33:20;32.25;;;14.02;;
42904;SDS011;28550;51.228;4.528;2024-01-06T02:35:49;31.10;;;14.32;;
42904;SDS011;28550;51.228;4.528;2024-01-06T02:38:43;28.58;;;13.50;;
42904;SDS011;28550;51.228;4.528;2024-01-06T02:41:37;29.20;;;13.35;;
42904;SDS011;28550;51.228;4.528;2024-01-06T02:44:14;35.42;;;16.17;;
42904;SDS011;28550;51.228;4.528;2024-01-06T02:46:42;28.85;;;15.18;;
42904;SDS011;28550;51.228;4.528;2024-01-06T02:57:30;28.67;;;15.23;;
42904;SDS011;28550;51.228;4.528;2024-01-06T03:05:51;30.58;;;14.23;;
42904;SDS011;28550;51.228;4.528;2024-01-06T03:08:28;34.22;;;15.27;;
42904;SDS011;28550;51.228;4.528;2024-01-06T03:14:20;29.33;;;14.77;;
42904;SDS011;28550;51.228;4.528;2024-01-06T03:19:39;31.20;;;15.43;;
42904;SDS011;28550;51.228;4.528;2024-01-06T03:33:44;26.90;;;13.02;;
42904;SDS011;28550;51.228;4.528;2024-01-06T03:45:58;22.58;;;10.85;;
42904;SDS011;28550;51.228;4.528;2024-01-06T03:48:45;27.75;;;11.63;;
42904;SDS011;28550;51.228;4.528;2024-01-06T03:51:32;20.45;;;10.63;;
42904;SDS011;28550;51.228;4.528;2024-01-06T03:54:09;25.63;;;12.32;;
42904;SDS011;28550;51.228;4.528;2024-01-06T04:05:11;24.17;;;11.40;;
42904;SDS011;28550;51.228;4.528;2024-01-06T04:39:39;25.17;;;12.88;;
42904;SDS011;28550;51.228;4.528;2024-01-06T04:45:25;26.90;;;12.93;;
42904;SDS011;28550;51.228;4.528;2024-01-06T04:47:54;25.17;;;12.68;;
42904;SDS011;28550;51.228;4.528;2024-01-06T04:50:29;21.58;;;11.38;;
42904;SDS011;28550;51.228;4.528;2024-01-06T04:52:57;24.23;;;12.38;;
42904;SDS011;28550;51.228;4.528;2024-01-06T04:55:22;25.65;;;13.07;;
42904;SDS011;28550;51.228;4.528;2024-01-06T04:57:48;23.35;;;11.65;;
42904;SDS011;28550;51.228;4.528;2024-01-06T05:03:13;24.20;;;12.60;;
42904;SDS011;28550;51.228;4.528;2024-01-06T05:05:48;22.58;;;11.45;;
42904;SDS011;28550;51.228;4.528;2024-01-06T11:40:55;13.57;;;8.23;;
42904;SDS011;28550;51.228;4.528;2024-01-06T12:08:50;15.82;;;8.40;;
